createdAt,value
2022-10-13T00:00:43.830Z,101378.25
2022-10-13T00:05:41.919Z,101383.94
2022-10-13T00:10:38.581Z,101371.00
2022-10-13T00:15:33.430Z,101381.66
2022-10-13T00:20:26.713Z,101377.09
2022-10-13T00:25:19.882Z,101361.78
2022-10-13T00:30:12.655Z,101364.34
2022-10-13T00:35:07.867Z,101393.72
2022-10-13T00:40:01.913Z,101391.34
2022-10-13T00:45:18.351Z,101387.75
2022-10-13T00:50:15.606Z,101384.25
2022-10-13T00:55:14.617Z,101382.53
2022-10-13T01:00:09.166Z,101380.13
2022-10-13T01:05:04.508Z,101353.28
2022-10-13T01:09:57.957Z,101373.09
2022-10-13T01:15:13.829Z,101325.38
2022-10-13T01:20:25.372Z,101366.28
2022-10-13T01:25:46.934Z,101366.28
2022-10-13T01:30:49.645Z,101376.03
2022-10-13T01:36:24.072Z,101359.50
2022-10-13T01:41:23.841Z,101360.06
2022-10-13T01:46:24.789Z,101339.63
2022-10-13T01:51:20.769Z,101330.84
2022-10-13T01:56:57.165Z,101349.63
2022-10-13T02:02:17.846Z,101341.06
2022-10-13T02:07:43.255Z,101319.66
2022-10-13T02:13:00.363Z,101341.84
2022-10-13T02:17:56.566Z,101337.47
2022-10-13T02:22:56.596Z,101312.44
2022-10-13T02:27:49.912Z,101334.91
2022-10-13T02:32:43.832Z,101320.41
2022-10-13T02:37:37.686Z,101339.34
2022-10-13T02:42:31.023Z,101342.88
2022-10-13T02:47:30.581Z,101319.66
2022-10-13T02:52:25.013Z,101336.91
2022-10-13T02:57:18.655Z,101330.72
2022-10-13T03:02:14.484Z,101336.91
2022-10-13T03:07:08.155Z,101303.09
2022-10-13T03:12:01.873Z,101313.03
2022-10-13T03:16:55.581Z,101329.00
2022-10-13T03:21:48.483Z,101322.81
2022-10-13T03:26:42.421Z,101328.16
2022-10-13T03:31:36.372Z,101326.50
2022-10-13T03:36:30.359Z,101327.47
2022-10-13T03:41:24.531Z,101332.78
2022-10-13T03:46:18.836Z,101324.88
2022-10-13T03:51:16.697Z,101317.75
2022-10-13T03:56:21.309Z,101292.84
2022-10-13T04:01:18.014Z,101307.00
2022-10-13T04:06:14.175Z,101327.63
2022-10-13T04:11:11.005Z,101284.78
2022-10-13T04:16:14.173Z,101333.13
2022-10-13T04:21:17.491Z,101321.94
2022-10-13T04:26:18.326Z,101323.44
2022-10-13T04:31:11.489Z,101331.41
2022-10-13T04:36:06.313Z,101304.81
2022-10-13T04:40:59.668Z,101325.38
2022-10-13T04:45:54.399Z,101291.53
2022-10-13T04:50:47.350Z,101312.06
2022-10-13T04:55:41.785Z,101303.88
2022-10-13T05:00:35.890Z,101311.19
2022-10-13T05:05:29.476Z,101299.69
2022-10-13T05:10:23.609Z,101296.28
2022-10-13T05:15:17.377Z,101281.72
2022-10-13T05:20:11.189Z,101272.91
2022-10-13T05:25:04.536Z,101294.38
2022-10-13T05:29:58.677Z,101283.91
2022-10-13T05:34:52.130Z,101261.88
2022-10-13T05:39:48.783Z,101253.28
2022-10-13T05:44:42.978Z,101272.47
2022-10-13T05:49:40.378Z,101272.34
2022-10-13T05:54:42.223Z,101269.25
2022-10-13T05:59:40.681Z,101241.41
2022-10-13T06:04:42.329Z,101270.72
2022-10-13T06:09:38.568Z,101265.53
2022-10-13T06:14:36.277Z,101247.94
2022-10-13T06:19:32.520Z,101285.34
2022-10-13T06:24:33.675Z,101286.97
2022-10-13T06:29:27.419Z,101260.34
2022-10-13T06:34:20.491Z,101296.00
2022-10-13T06:39:13.608Z,101275.28
2022-10-13T06:44:07.355Z,101284.50
2022-10-13T06:49:00.311Z,101270.19
2022-10-13T06:53:57.119Z,101246.31
2022-10-13T06:58:51.601Z,101289.22
2022-10-13T07:03:45.078Z,101273.03
2022-10-13T07:08:39.062Z,101295.41
2022-10-13T07:13:36.358Z,101289.16
2022-10-13T07:18:31.764Z,101293.69
2022-10-13T07:23:25.484Z,101271.41
2022-10-13T07:28:18.981Z,101282.81
2022-10-13T07:33:13.717Z,101283.59
2022-10-13T07:38:08.776Z,101286.25
2022-10-13T07:43:02.421Z,101284.69
2022-10-13T07:47:57.143Z,101307.25
2022-10-13T07:52:50.153Z,101316.94
2022-10-13T07:57:43.774Z,101287.91
2022-10-13T08:02:37.852Z,101308.88
2022-10-13T08:07:32.471Z,101309.13
2022-10-13T08:12:26.175Z,101296.56
2022-10-13T08:17:19.771Z,101326.03
2022-10-13T08:22:13.332Z,101297.88
2022-10-13T08:27:11.524Z,101300.53
2022-10-13T08:32:05.254Z,101281.00
2022-10-13T08:37:00.758Z,101275.94
2022-10-13T08:41:58.090Z,101315.25
2022-10-13T08:47:08.279Z,101298.22
2022-10-13T08:52:06.068Z,101327.75
2022-10-13T09:02:15.868Z,101335.88
2022-10-13T09:07:16.889Z,101295.63
2022-10-13T09:12:13.922Z,101292.28
2022-10-13T09:17:24.368Z,101286.00
2022-10-13T09:22:24.804Z,101310.75
2022-10-13T09:27:18.356Z,101308.88
2022-10-13T09:32:17.899Z,101306.47
2022-10-13T09:37:26.196Z,101277.66
2022-10-13T09:42:24.021Z,101274.34
2022-10-13T09:47:26.431Z,101275.13
2022-10-13T09:52:23.042Z,101297.03
2022-10-13T09:57:32.598Z,101276.63
2022-10-13T10:02:36.356Z,101279.75
2022-10-13T10:07:32.600Z,101291.28
2022-10-13T10:12:30.816Z,101286.78
2022-10-13T10:17:38.615Z,101280.53
2022-10-13T10:22:43.956Z,101260.16
2022-10-13T10:27:45.457Z,101263.91
2022-10-13T10:32:55.764Z,101258.31
2022-10-13T10:38:18.935Z,101248.53
2022-10-13T10:43:27.348Z,101238.00
2022-10-13T10:48:24.400Z,101222.94
2022-10-13T10:53:58.325Z,101211.41
2022-10-13T10:58:51.764Z,101215.69
2022-10-13T11:04:36.339Z,101188.25
2022-10-13T11:10:02.958Z,101181.22
2022-10-13T11:14:55.860Z,101186.28
2022-10-13T11:19:50.297Z,101188.25
2022-10-13T11:24:43.289Z,101174.97
2022-10-13T11:29:50.011Z,101157.88
2022-10-13T11:34:58.268Z,101128.25
2022-10-13T11:40:11.209Z,101131.56
2022-10-13T11:45:59.544Z,101143.63
2022-10-13T11:50:52.221Z,101150.59
2022-10-13T11:55:56.823Z,101112.97
2022-10-13T12:00:59.193Z,101125.31
2022-10-13T12:05:53.012Z,101101.28
2022-10-13T12:10:46.422Z,101113.34
2022-10-13T12:15:43.951Z,101111.84
2022-10-13T12:20:37.627Z,101106.41
2022-10-13T12:25:32.055Z,101075.50
2022-10-13T12:30:31.155Z,101089.63
2022-10-13T12:35:27.541Z,101089.81
2022-10-13T12:40:21.596Z,101082.78
2022-10-13T12:45:20.795Z,101098.06
2022-10-13T12:50:26.042Z,101084.31
2022-10-13T12:55:22.028Z,101052.63
2022-10-13T13:00:24.763Z,101081.53
2022-10-13T13:05:57.297Z,101052.50
2022-10-13T13:11:04.796Z,101066.81
2022-10-13T13:16:20.284Z,101062.16
2022-10-13T13:21:19.344Z,101068.47
2022-10-13T13:26:30.614Z,101050.69
2022-10-13T13:31:26.077Z,101061.13
2022-10-13T13:36:22.729Z,101050.41
2022-10-13T13:41:18.489Z,101030.78
2022-10-13T13:46:22.368Z,101025.53
2022-10-13T13:51:16.562Z,101038.69
2022-10-13T13:56:13.884Z,101035.41
2022-10-13T14:01:07.385Z,101014.06
2022-10-13T14:06:01.077Z,101029.88
2022-10-13T14:10:54.479Z,101037.00
2022-10-13T14:15:58.750Z,101028.19
2022-10-13T14:20:52.672Z,101026.56
2022-10-13T14:25:45.865Z,101009.28
2022-10-13T14:30:42.618Z,101007.50
2022-10-13T14:35:37.210Z,101025.34
2022-10-13T14:40:30.953Z,101009.97
2022-10-13T14:45:24.682Z,101046.50
2022-10-13T14:50:17.796Z,101008.44
2022-10-13T14:55:12.853Z,101011.28
2022-10-13T15:00:07.623Z,100989.44
2022-10-13T15:05:01.319Z,100990.50
2022-10-13T15:10:11.750Z,100980.94
2022-10-13T15:15:05.403Z,101010.97
2022-10-13T15:19:59.351Z,101000.34
2022-10-13T15:24:56.416Z,101004.78
2022-10-13T15:29:49.675Z,100994.91
2022-10-13T15:34:44.985Z,100995.78
2022-10-13T15:39:39.938Z,100984.50
2022-10-13T15:44:57.505Z,100986.47
2022-10-13T15:49:47.381Z,100963.72
2022-10-13T15:54:41.496Z,100974.59
2022-10-13T15:59:35.807Z,100967.97
2022-10-13T16:04:34.871Z,100985.03
2022-10-13T16:09:31.011Z,100934.97
2022-10-13T16:14:24.602Z,100946.72
2022-10-13T16:19:18.808Z,100959.81
2022-10-13T16:24:12.824Z,100957.34
2022-10-13T16:29:07.029Z,100941.69
2022-10-13T16:34:01.945Z,100978.88
2022-10-13T16:38:55.789Z,100939.16
2022-10-13T16:43:48.850Z,100949.50
2022-10-13T16:48:43.512Z,100974.59
2022-10-13T16:53:37.113Z,100990.38
2022-10-13T16:58:30.917Z,100951.38
2022-10-13T17:03:28.092Z,100956.06
2022-10-13T17:08:22.233Z,100990.38
2022-10-13T17:13:15.926Z,100986.88
2022-10-13T17:18:10.877Z,100998.34
2022-10-13T17:23:03.937Z,100983.34
2022-10-13T17:27:58.166Z,100955.00
2022-10-13T17:32:52.955Z,100975.47
2022-10-13T17:37:48.932Z,100982.38
2022-10-13T17:42:48.281Z,100970.75
2022-10-13T17:47:49.792Z,100986.88
2022-10-13T17:52:43.007Z,100992.19
2022-10-13T17:57:36.773Z,100993.97
2022-10-13T18:02:31.599Z,100994.06
2022-10-13T18:07:25.436Z,100993.03
2022-10-13T18:12:19.152Z,100960.13
2022-10-13T18:17:13.043Z,100983.22
2022-10-13T18:22:07.257Z,100960.13
2022-10-13T18:27:01.627Z,100973.56
2022-10-13T18:31:56.636Z,100954.88
2022-10-13T18:36:54.041Z,100979.72
2022-10-13T18:41:51.561Z,100954.16
2022-10-13T18:46:45.151Z,100984.28
2022-10-13T18:51:39.933Z,100963.50
2022-10-13T18:56:34.874Z,100981.84
2022-10-13T19:01:30.738Z,100985.34
2022-10-13T19:06:27.550Z,100973.50
2022-10-13T19:11:22.405Z,100994.84
2022-10-13T19:16:18.914Z,100995.78
2022-10-13T19:21:12.857Z,100993.03
2022-10-13T19:26:18.836Z,101001.00
2022-10-13T19:31:19.180Z,101005.47
2022-10-13T19:36:20.341Z,100982.38
2022-10-13T19:41:15.358Z,101007.88
2022-10-13T19:46:10.619Z,101003.22
2022-10-13T19:51:07.322Z,100991.91
2022-10-13T19:56:00.469Z,100992.16
2022-10-13T20:00:54.472Z,100980.41
2022-10-13T20:05:48.101Z,101008.69
2022-10-13T20:10:42.683Z,100998.72
2022-10-13T20:15:40.851Z,101002.44
2022-10-13T20:20:35.256Z,100989.66
2022-10-13T20:25:28.570Z,100997.13
2022-10-13T20:30:22.022Z,101018.31
2022-10-13T20:35:15.101Z,100986.25
2022-10-13T20:40:11.323Z,101000.53
2022-10-13T20:45:05.835Z,101009.38
2022-10-13T20:50:00.100Z,101004.91
2022-10-13T20:54:54.368Z,100974.28
2022-10-13T20:59:49.500Z,101005.88
2022-10-13T21:04:43.552Z,100998.66
2022-10-13T21:09:37.108Z,100996.00
2022-10-13T21:14:34.969Z,100981.47
2022-10-13T21:19:29.811Z,100989.72
2022-10-13T21:24:24.061Z,100996.00
2022-10-13T21:29:18.375Z,100987.13
2022-10-13T21:34:15.524Z,100989.16
2022-10-13T21:39:09.874Z,100987.13
2022-10-13T21:44:04.137Z,100984.69
2022-10-13T21:49:00.853Z,101000.53
2022-10-13T21:53:56.851Z,100995.13
2022-10-13T21:58:49.374Z,100972.84
2022-10-13T22:03:47.075Z,100975.69
2022-10-13T22:08:41.534Z,100994.38
2022-10-13T22:13:47.062Z,101001.31
2022-10-13T22:18:40.960Z,100985.09
2022-10-13T22:23:38.809Z,101009.06
2022-10-13T22:28:36.810Z,101006.50
2022-10-13T22:33:30.325Z,101004.81
2022-10-13T22:38:23.924Z,101002.78
2022-10-13T22:43:17.802Z,100999.28
2022-10-13T22:48:12.084Z,100999.91
2022-10-13T22:53:10.229Z,101000.25
2022-10-13T22:58:03.862Z,100977.03
2022-10-13T23:02:56.953Z,100996.63
2022-10-13T23:07:50.358Z,100991.31
2022-10-13T23:12:43.948Z,100990.44
2022-10-13T23:17:37.464Z,100960.19
2022-10-13T23:22:31.446Z,100955.84
2022-10-13T23:27:24.796Z,100952.13
2022-10-13T23:32:18.299Z,100984.28
2022-10-13T23:37:13.155Z,100966.63
2022-10-13T23:42:08.123Z,100977.25
2022-10-13T23:47:01.481Z,100982.56
2022-10-13T23:51:55.283Z,100974.72
2022-10-13T23:56:49.334Z,100970.22
